sensor_id;sensor_type;location;lat;lon;timestamp;temperature;humidity
37052;DHT22;22964;52.272;13.356;2022-07-23T00:00:59;21.70;57.60
37052;DHT22;22964;52.272;13.356;2022-07-23T00:03:25;21.60;57.70
37052;DHT22;22964;52.272;13.356;2022-07-23T00:05:51;21.60;57.70
37052;DHT22;22964;52.272;13.356;2022-07-23T00:08:17;21.60;57.80
37052;DHT22;22964;52.272;13.356;2022-07-23T00:10:43;21.60;58.00
37052;DHT22;22964;52.272;13.356;2022-07-23T00:13:09;21.50;58.00
37052;DHT22;22964;52.272;13.356;2022-07-23T00:15:34;21.50;58.10
37052;DHT22;22964;52.272;13.356;2022-07-23T00:18:00;21.50;58.20
37052;DHT22;22964;52.272;13.356;2022-07-23T00:20:26;21.40;58.30
37052;DHT22;22964;52.272;13.356;2022-07-23T00:22:54;21.50;58.40
37052;DHT22;22964;52.272;13.356;2022-07-23T00:25:21;21.40;58.70
37052;DHT22;22964;52.272;13.356;2022-07-23T00:27:47;21.40;58.80
37052;DHT22;22964;52.272;13.356;2022-07-23T00:30:13;21.40;58.80
37052;DHT22;22964;52.272;13.356;2022-07-23T00:32:52;21.40;58.90
37052;DHT22;22964;52.272;13.356;2022-07-23T00:35:21;21.30;59.60
37052;DHT22;22964;52.272;13.356;2022-07-23T00:37:48;21.30;59.30
37052;DHT22;22964;52.272;13.356;2022-07-23T00:40:14;21.30;59.10
37052;DHT22;22964;52.272;13.356;2022-07-23T00:42:40;21.30;59.20
37052;DHT22;22964;52.272;13.356;2022-07-23T00:45:06;21.20;59.20
37052;DHT22;22964;52.272;13.356;2022-07-23T00:47:33;21.20;59.40
37052;DHT22;22964;52.272;13.356;2022-07-23T00:49:59;21.20;59.60
37052;DHT22;22964;52.272;13.356;2022-07-23T00:52:25;21.20;59.60
37052;DHT22;22964;52.272;13.356;2022-07-23T00:54:51;21.20;59.90
37052;DHT22;22964;52.272;13.356;2022-07-23T00:57:17;21.10;59.80
37052;DHT22;22964;52.272;13.356;2022-07-23T00:59:43;21.10;59.90
37052;DHT22;22964;52.272;13.356;2022-07-23T01:02:09;21.10;60.00
37052;DHT22;22964;52.272;13.356;2022-07-23T01:04:35;21.00;60.00
37052;DHT22;22964;52.272;13.356;2022-07-23T01:07:01;21.10;60.20
37052;DHT22;22964;52.272;13.356;2022-07-23T01:09:27;21.10;60.30
37052;DHT22;22964;52.272;13.356;2022-07-23T01:11:55;21.00;60.50
37052;DHT22;22964;52.272;13.356;2022-07-23T01:14:21;21.00;60.90
37052;DHT22;22964;52.272;13.356;2022-07-23T01:16:48;21.00;61.60
37052;DHT22;22964;52.272;13.356;2022-07-23T01:19:15;21.00;60.90
37052;DHT22;22964;52.272;13.356;2022-07-23T01:21:46;21.00;60.90
37052;DHT22;22964;52.272;13.356;2022-07-23T01:24:12;21.00;61.10
37052;DHT22;22964;52.272;13.356;2022-07-23T01:26:46;21.00;61.00
37052;DHT22;22964;52.272;13.356;2022-07-23T01:29:13;21.00;62.00
37052;DHT22;22964;52.272;13.356;2022-07-23T01:31:39;21.00;61.00
37052;DHT22;22964;52.272;13.356;2022-07-23T01:34:06;21.00;61.20
37052;DHT22;22964;52.272;13.356;2022-07-23T01:36:36;20.90;61.20
37052;DHT22;22964;52.272;13.356;2022-07-23T01:39:04;21.00;61.60
37052;DHT22;22964;52.272;13.356;2022-07-23T01:41:30;21.00;61.70
37052;DHT22;22964;52.272;13.356;2022-07-23T01:43:56;21.00;61.80
37052;DHT22;22964;52.272;13.356;2022-07-23T01:46:23;21.00;61.90
37052;DHT22;22964;52.272;13.356;2022-07-23T01:48:49;20.90;62.00
37052;DHT22;22964;52.272;13.356;2022-07-23T01:51:38;21.00;62.10
37052;DHT22;22964;52.272;13.356;2022-07-23T01:54:25;21.00;62.10
37052;DHT22;22964;52.272;13.356;2022-07-23T01:56:52;21.00;62.30
37052;DHT22;22964;52.272;13.356;2022-07-23T01:59:17;21.00;62.60
37052;DHT22;22964;52.272;13.356;2022-07-23T02:01:43;21.00;62.80
37052;DHT22;22964;52.272;13.356;2022-07-23T02:04:09;21.00;62.80
37052;DHT22;22964;52.272;13.356;2022-07-23T02:06:35;21.00;62.80
37052;DHT22;22964;52.272;13.356;2022-07-23T02:09:00;21.00;63.00
37052;DHT22;22964;52.272;13.356;2022-07-23T02:11:26;21.00;63.20
37052;DHT22;22964;52.272;13.356;2022-07-23T02:13:52;21.10;63.30
37052;DHT22;22964;52.272;13.356;2022-07-23T02:16:20;21.10;63.30
37052;DHT22;22964;52.272;13.356;2022-07-23T02:18:46;21.10;63.40
37052;DHT22;22964;52.272;13.356;2022-07-23T02:21:12;21.10;63.50
37052;DHT22;22964;52.272;13.356;2022-07-23T02:23:38;21.10;63.40
37052;DHT22;22964;52.272;13.356;2022-07-23T02:26:04;21.10;63.30
37052;DHT22;22964;52.272;13.356;2022-07-23T02:28:30;21.10;63.40
37052;DHT22;22964;52.272;13.356;2022-07-23T02:30:56;21.20;63.50
37052;DHT22;22964;52.272;13.356;2022-07-23T02:33:22;21.20;63.40
37052;DHT22;22964;52.272;13.356;2022-07-23T02:35:47;21.20;63.50
37052;DHT22;22964;52.272;13.356;2022-07-23T02:38:14;21.10;63.40
37052;DHT22;22964;52.272;13.356;2022-07-23T02:40:39;21.20;63.50
37052;DHT22;22964;52.272;13.356;2022-07-23T02:43:06;21.20;63.70
37052;DHT22;22964;52.272;13.356;2022-07-23T02:45:31;21.20;63.70
37052;DHT22;22964;52.272;13.356;2022-07-23T02:47:57;21.20;63.60
37052;DHT22;22964;52.272;13.356;2022-07-23T02:50:23;21.20;63.60
37052;DHT22;22964;52.272;13.356;2022-07-23T02:52:54;21.10;63.50
37052;DHT22;22964;52.272;13.356;2022-07-23T02:55:20;21.20;64.30
37052;DHT22;22964;52.272;13.356;2022-07-23T02:57:45;21.10;63.40
37052;DHT22;22964;52.272;13.356;2022-07-23T03:00:11;21.10;63.50
37052;DHT22;22964;52.272;13.356;2022-07-23T03:02:38;21.10;63.60
37052;DHT22;22964;52.272;13.356;2022-07-23T03:05:04;21.10;63.60
37052;DHT22;22964;52.272;13.356;2022-07-23T03:07:30;21.10;63.80
37052;DHT22;22964;52.272;13.356;2022-07-23T03:09:56;21.10;63.60
37052;DHT22;22964;52.272;13.356;2022-07-23T03:12:22;21.10;63.70
37052;DHT22;22964;52.272;13.356;2022-07-23T03:14:49;21.10;63.90
37052;DHT22;22964;52.272;13.356;2022-07-23T03:17:14;21.10;64.10
37052;DHT22;22964;52.272;13.356;2022-07-23T03:19:40;21.10;64.10
37052;DHT22;22964;52.272;13.356;2022-07-23T03:22:07;21.10;64.10
37052;DHT22;22964;52.272;13.356;2022-07-23T03:24:33;21.10;64.00
37052;DHT22;22964;52.272;13.356;2022-07-23T03:27:17;21.10;63.90
37052;DHT22;22964;52.272;13.356;2022-07-23T03:29:43;21.10;63.70
37052;DHT22;22964;52.272;13.356;2022-07-23T03:32:09;21.10;63.70
37052;DHT22;22964;52.272;13.356;2022-07-23T03:34:35;21.10;63.90
37052;DHT22;22964;52.272;13.356;2022-07-23T03:37:01;21.10;64.00
37052;DHT22;22964;52.272;13.356;2022-07-23T03:39:27;21.10;64.10
37052;DHT22;22964;52.272;13.356;2022-07-23T03:41:53;21.10;64.10
37052;DHT22;22964;52.272;13.356;2022-07-23T03:44:18;21.00;64.10
37052;DHT22;22964;52.272;13.356;2022-07-23T03:46:44;21.00;64.10
37052;DHT22;22964;52.272;13.356;2022-07-23T03:49:10;21.00;64.20
37052;DHT22;22964;52.272;13.356;2022-07-23T03:51:35;21.00;64.20
37052;DHT22;22964;52.272;13.356;2022-07-23T03:54:02;21.00;64.20
37052;DHT22;22964;52.272;13.356;2022-07-23T03:56:28;21.00;64.30
37052;DHT22;22964;52.272;13.356;2022-07-23T03:58:53;21.00;64.30
37052;DHT22;22964;52.272;13.356;2022-07-23T04:01:19;20.90;64.20
37052;DHT22;22964;52.272;13.356;2022-07-23T04:03:45;20.90;64.30
37052;DHT22;22964;52.272;13.356;2022-07-23T04:06:12;20.90;64.20
37052;DHT22;22964;52.272;13.356;2022-07-23T04:08:38;20.90;64.30
37052;DHT22;22964;52.272;13.356;2022-07-23T04:11:04;20.90;64.10
37052;DHT22;22964;52.272;13.356;2022-07-23T04:13:30;20.90;64.10
37052;DHT22;22964;52.272;13.356;2022-07-23T04:15:55;21.00;64.10
37052;DHT22;22964;52.272;13.356;2022-07-23T04:18:21;20.90;64.00
37052;DHT22;22964;52.272;13.356;2022-07-23T04:20:57;21.00;63.90
37052;DHT22;22964;52.272;13.356;2022-07-23T04:23:23;21.00;63.90
37052;DHT22;22964;52.272;13.356;2022-07-23T04:25:49;21.00;64.00
37052;DHT22;22964;52.272;13.356;2022-07-23T04:28:15;21.00;64.20
37052;DHT22;22964;52.272;13.356;2022-07-23T04:30:41;21.00;64.10
37052;DHT22;22964;52.272;13.356;2022-07-23T04:33:08;21.00;64.00
37052;DHT22;22964;52.272;13.356;2022-07-23T04:35:37;21.10;64.00
37052;DHT22;22964;52.272;13.356;2022-07-23T04:38:11;21.10;64.00
37052;DHT22;22964;52.272;13.356;2022-07-23T04:40:38;21.10;64.20
37052;DHT22;22964;52.272;13.356;2022-07-23T04:43:03;21.10;64.10
37052;DHT22;22964;52.272;13.356;2022-07-23T04:45:39;21.10;64.10
37052;DHT22;22964;52.272;13.356;2022-07-23T04:48:05;21.10;64.00
37052;DHT22;22964;52.272;13.356;2022-07-23T04:50:30;21.10;64.40
37052;DHT22;22964;52.272;13.356;2022-07-23T04:52:57;21.10;64.70
37052;DHT22;22964;52.272;13.356;2022-07-23T04:55:24;21.10;65.10
37052;DHT22;22964;52.272;13.356;2022-07-23T04:57:49;21.10;65.40
37052;DHT22;22964;52.272;13.356;2022-07-23T05:00:16;21.10;65.50
37052;DHT22;22964;52.272;13.356;2022-07-23T05:02:41;21.10;65.40
37052;DHT22;22964;52.272;13.356;2022-07-23T05:05:08;21.10;65.50
37052;DHT22;22964;52.272;13.356;2022-07-23T05:07:34;21.10;65.60
37052;DHT22;22964;52.272;13.356;2022-07-23T05:09:59;21.10;65.90
37052;DHT22;22964;52.272;13.356;2022-07-23T05:12:26;21.10;66.00
37052;DHT22;22964;52.272;13.356;2022-07-23T05:14:51;21.10;65.80
37052;DHT22;22964;52.272;13.356;2022-07-23T05:17:19;21.10;65.80
37052;DHT22;22964;52.272;13.356;2022-07-23T05:19:45;21.10;66.00
37052;DHT22;22964;52.272;13.356;2022-07-23T05:22:10;21.10;65.90
37052;DHT22;22964;52.272;13.356;2022-07-23T05:24:37;21.10;65.70
37052;DHT22;22964;52.272;13.356;2022-07-23T05:27:04;21.10;65.90
37052;DHT22;22964;52.272;13.356;2022-07-23T05:29:29;21.10;65.90
37052;DHT22;22964;52.272;13.356;2022-07-23T05:31:55;21.10;66.00
37052;DHT22;22964;52.272;13.356;2022-07-23T05:34:22;21.00;66.00
37052;DHT22;22964;52.272;13.356;2022-07-23T05:36:47;21.10;66.10
37052;DHT22;22964;52.272;13.356;2022-07-23T05:39:14;21.00;66.00
37052;DHT22;22964;52.272;13.356;2022-07-23T05:41:40;21.00;66.00
37052;DHT22;22964;52.272;13.356;2022-07-23T05:44:06;21.00;65.80
37052;DHT22;22964;52.272;13.356;2022-07-23T05:46:34;21.00;65.60
37052;DHT22;22964;52.272;13.356;2022-07-23T05:49:04;21.00;65.50
37052;DHT22;22964;52.272;13.356;2022-07-23T05:52:03;21.00;65.80
37052;DHT22;22964;52.272;13.356;2022-07-23T05:54:42;21.00;66.40
37052;DHT22;22964;52.272;13.356;2022-07-23T05:57:09;21.00;66.00
37052;DHT22;22964;52.272;13.356;2022-07-23T05:59:34;21.00;66.20
37052;DHT22;22964;52.272;13.356;2022-07-23T06:02:00;20.90;66.40
37052;DHT22;22964;52.272;13.356;2022-07-23T06:04:26;20.90;66.30
37052;DHT22;22964;52.272;13.356;2022-07-23T06:07:16;20.90;66.00
37052;DHT22;22964;52.272;13.356;2022-07-23T06:09:42;20.90;65.80
37052;DHT22;22964;52.272;13.356;2022-07-23T06:12:08;20.90;65.80
37052;DHT22;22964;52.272;13.356;2022-07-23T06:14:34;20.90;65.90
37052;DHT22;22964;52.272;13.356;2022-07-23T06:17:00;20.80;66.10
37052;DHT22;22964;52.272;13.356;2022-07-23T06:19:26;20.80;67.20
37052;DHT22;22964;52.272;13.356;2022-07-23T06:21:52;20.80;66.40
37052;DHT22;22964;52.272;13.356;2022-07-23T06:24:18;20.80;66.50
37052;DHT22;22964;52.272;13.356;2022-07-23T06:26:44;20.80;66.70
37052;DHT22;22964;52.272;13.356;2022-07-23T06:29:10;20.80;66.90
37052;DHT22;22964;52.272;13.356;2022-07-23T06:31:36;20.80;67.00
37052;DHT22;22964;52.272;13.356;2022-07-23T06:34:02;20.80;67.20
37052;DHT22;22964;52.272;13.356;2022-07-23T06:36:28;20.80;67.20
37052;DHT22;22964;52.272;13.356;2022-07-23T06:38:54;20.70;67.30
37052;DHT22;22964;52.272;13.356;2022-07-23T06:41:20;20.70;67.40
37052;DHT22;22964;52.272;13.356;2022-07-23T06:43:45;20.70;67.70
37052;DHT22;22964;52.272;13.356;2022-07-23T06:46:13;20.70;68.10
37052;DHT22;22964;52.272;13.356;2022-07-23T06:48:39;20.70;68.50
37052;DHT22;22964;52.272;13.356;2022-07-23T06:51:06;20.80;68.80
37052;DHT22;22964;52.272;13.356;2022-07-23T06:53:31;20.80;68.90
37052;DHT22;22964;52.272;13.356;2022-07-23T06:55:57;20.80;69.00
37052;DHT22;22964;52.272;13.356;2022-07-23T06:58:23;20.80;69.00
37052;DHT22;22964;52.272;13.356;2022-07-23T07:00:48;20.90;69.10
37052;DHT22;22964;52.272;13.356;2022-07-23T07:03:16;20.90;69.10
37052;DHT22;22964;52.272;13.356;2022-07-23T07:05:41;20.90;68.90
37052;DHT22;22964;52.272;13.356;2022-07-23T07:08:07;21.00;69.00
37052;DHT22;22964;52.272;13.356;2022-07-23T07:10:33;21.00;69.10
37052;DHT22;22964;52.272;13.356;2022-07-23T07:12:58;21.00;69.20
37052;DHT22;22964;52.272;13.356;2022-07-23T07:15:24;21.00;69.20
37052;DHT22;22964;52.272;13.356;2022-07-23T07:17:50;21.00;69.00
37052;DHT22;22964;52.272;13.356;2022-07-23T07:20:15;21.00;68.90
37052;DHT22;22964;52.272;13.356;2022-07-23T07:22:41;21.10;68.90
37052;DHT22;22964;52.272;13.356;2022-07-23T07:25:07;21.10;68.90
37052;DHT22;22964;52.272;13.356;2022-07-23T07:27:33;21.10;69.00
37052;DHT22;22964;52.272;13.356;2022-07-23T07:29:59;21.10;68.90
37052;DHT22;22964;52.272;13.356;2022-07-23T07:32:25;21.10;69.00
37052;DHT22;22964;52.272;13.356;2022-07-23T07:34:50;21.20;69.20
37052;DHT22;22964;52.272;13.356;2022-07-23T07:37:16;21.20;69.30
37052;DHT22;22964;52.272;13.356;2022-07-23T07:39:42;21.20;69.20
37052;DHT22;22964;52.272;13.356;2022-07-23T07:42:07;21.30;69.10
37052;DHT22;22964;52.272;13.356;2022-07-23T07:44:33;21.30;69.10
37052;DHT22;22964;52.272;13.356;2022-07-23T07:46:59;21.30;69.10
37052;DHT22;22964;52.272;13.356;2022-07-23T07:49:24;21.30;69.10
37052;DHT22;22964;52.272;13.356;2022-07-23T07:51:50;21.40;69.40
37052;DHT22;22964;52.272;13.356;2022-07-23T07:54:16;21.40;69.60
37052;DHT22;22964;52.272;13.356;2022-07-23T07:56:41;21.40;69.70
37052;DHT22;22964;52.272;13.356;2022-07-23T07:59:07;21.40;70.00
37052;DHT22;22964;52.272;13.356;2022-07-23T08:01:33;21.40;70.30
37052;DHT22;22964;52.272;13.356;2022-07-23T08:03:59;21.50;70.80
37052;DHT22;22964;52.272;13.356;2022-07-23T08:06:24;21.60;71.00
37052;DHT22;22964;52.272;13.356;2022-07-23T08:08:50;21.70;71.20
37052;DHT22;22964;52.272;13.356;2022-07-23T08:11:16;21.70;71.50
37052;DHT22;22964;52.272;13.356;2022-07-23T08:13:41;21.80;71.50
37052;DHT22;22964;52.272;13.356;2022-07-23T08:16:10;21.90;71.00
37052;DHT22;22964;52.272;13.356;2022-07-23T08:18:36;22.00;71.40
37052;DHT22;22964;52.272;13.356;2022-07-23T08:21:02;22.10;72.60
37052;DHT22;22964;52.272;13.356;2022-07-23T08:23:29;22.30;72.70
37052;DHT22;22964;52.272;13.356;2022-07-23T08:25:55;22.50;71.90
37052;DHT22;22964;52.272;13.356;2022-07-23T08:28:22;22.60;71.90
37052;DHT22;22964;52.272;13.356;2022-07-23T08:30:48;22.80;71.70
37052;DHT22;22964;52.272;13.356;2022-07-23T08:33:16;23.10;71.10
37052;DHT22;22964;52.272;13.356;2022-07-23T08:35:46;23.30;70.70
37052;DHT22;22964;52.272;13.356;2022-07-23T08:38:14;23.40;70.40
37052;DHT22;22964;52.272;13.356;2022-07-23T08:40:43;23.60;71.20
37052;DHT22;22964;52.272;13.356;2022-07-23T08:43:12;23.80;69.80
37052;DHT22;22964;52.272;13.356;2022-07-23T08:45:40;24.00;68.90
37052;DHT22;22964;52.272;13.356;2022-07-23T08:48:20;24.10;68.20
37052;DHT22;22964;52.272;13.356;2022-07-23T08:50:52;24.30;66.20
37052;DHT22;22964;52.272;13.356;2022-07-23T08:53:19;24.50;65.30
37052;DHT22;22964;52.272;13.356;2022-07-23T08:55:52;24.60;64.90
37052;DHT22;22964;52.272;13.356;2022-07-23T08:58:19;24.70;64.80
37052;DHT22;22964;52.272;13.356;2022-07-23T09:00:46;24.90;64.80
37052;DHT22;22964;52.272;13.356;2022-07-23T09:03:17;25.00;64.00
37052;DHT22;22964;52.272;13.356;2022-07-23T09:05:42;25.10;63.50
37052;DHT22;22964;52.272;13.356;2022-07-23T09:08:12;25.30;62.90
37052;DHT22;22964;52.272;13.356;2022-07-23T09:13:33;25.40;60.60
37052;DHT22;22964;52.272;13.356;2022-07-23T09:16:05;25.40;60.90
37052;DHT22;22964;52.272;13.356;2022-07-23T09:18:34;25.50;62.00
37052;DHT22;22964;52.272;13.356;2022-07-23T09:26:19;25.60;59.60
37052;DHT22;22964;52.272;13.356;2022-07-23T09:28:54;25.70;59.40
37052;DHT22;22964;52.272;13.356;2022-07-23T09:31:21;25.70;59.00
37052;DHT22;22964;52.272;13.356;2022-07-23T09:33:47;25.80;60.70
37052;DHT22;22964;52.272;13.356;2022-07-23T09:36:13;25.80;60.50
37052;DHT22;22964;52.272;13.356;2022-07-23T09:38:50;25.90;60.00
37052;DHT22;22964;52.272;13.356;2022-07-23T09:41:16;26.00;59.00
37052;DHT22;22964;52.272;13.356;2022-07-23T09:43:42;26.10;58.70
37052;DHT22;22964;52.272;13.356;2022-07-23T09:46:27;26.20;58.20
37052;DHT22;22964;52.272;13.356;2022-07-23T09:48:56;26.10;57.40
37052;DHT22;22964;52.272;13.356;2022-07-23T09:51:23;26.10;57.70
37052;DHT22;22964;52.272;13.356;2022-07-23T09:54:30;26.10;58.00
37052;DHT22;22964;52.272;13.356;2022-07-23T09:57:00;26.10;57.60
37052;DHT22;22964;52.272;13.356;2022-07-23T09:59:30;26.10;57.90
37052;DHT22;22964;52.272;13.356;2022-07-23T10:01:57;26.20;57.50
37052;DHT22;22964;52.272;13.356;2022-07-23T10:04:27;26.20;57.30
37052;DHT22;22964;52.272;13.356;2022-07-23T10:07:26;26.20;57.40
37052;DHT22;22964;52.272;13.356;2022-07-23T10:10:11;26.20;57.00
37052;DHT22;22964;52.272;13.356;2022-07-23T10:12:57;26.20;57.20
37052;DHT22;22964;52.272;13.356;2022-07-23T10:15:42;26.20;57.00
37052;DHT22;22964;52.272;13.356;2022-07-23T10:18:10;26.10;56.60
37052;DHT22;22964;52.272;13.356;2022-07-23T10:20:38;26.10;56.30
37052;DHT22;22964;52.272;13.356;2022-07-23T10:23:18;26.20;56.40
37052;DHT22;22964;52.272;13.356;2022-07-23T10:25:57;26.10;56.60
37052;DHT22;22964;52.272;13.356;2022-07-23T10:33:46;26.10;56.30
37052;DHT22;22964;52.272;13.356;2022-07-23T10:36:52;26.20;56.50
37052;DHT22;22964;52.272;13.356;2022-07-23T10:41:51;26.30;55.60
37052;DHT22;22964;52.272;13.356;2022-07-23T10:44:17;26.40;56.70
37052;DHT22;22964;52.272;13.356;2022-07-23T10:47:03;26.50;56.10
37052;DHT22;22964;52.272;13.356;2022-07-23T10:49:48;26.60;54.80
37052;DHT22;22964;52.272;13.356;2022-07-23T10:57:13;26.70;54.30
37052;DHT22;22964;52.272;13.356;2022-07-23T11:02:29;26.80;53.40
37052;DHT22;22964;52.272;13.356;2022-07-23T11:05:00;26.90;54.50
37052;DHT22;22964;52.272;13.356;2022-07-23T11:07:26;27.10;53.70
37052;DHT22;22964;52.272;13.356;2022-07-23T11:09:52;27.30;54.50
37052;DHT22;22964;52.272;13.356;2022-07-23T11:15:12;27.70;53.40
37052;DHT22;22964;52.272;13.356;2022-07-23T11:17:39;27.90;51.80
37052;DHT22;22964;52.272;13.356;2022-07-23T11:20:23;28.00;52.60
37052;DHT22;22964;52.272;13.356;2022-07-23T11:27:48;28.20;50.70
37052;DHT22;22964;52.272;13.356;2022-07-23T11:35:35;28.40;49.80
37052;DHT22;22964;52.272;13.356;2022-07-23T11:38:07;28.40;50.70
37052;DHT22;22964;52.272;13.356;2022-07-23T11:40:33;28.40;49.90
37052;DHT22;22964;52.272;13.356;2022-07-23T11:43:02;28.40;50.40
37052;DHT22;22964;52.272;13.356;2022-07-23T11:45:39;28.50;50.20
37052;DHT22;22964;52.272;13.356;2022-07-23T11:48:07;28.50;49.70
37052;DHT22;22964;52.272;13.356;2022-07-23T11:50:33;28.60;50.70
37052;DHT22;22964;52.272;13.356;2022-07-23T11:53:00;28.60;50.30
37052;DHT22;22964;52.272;13.356;2022-07-23T11:55:25;28.80;50.50
37052;DHT22;22964;52.272;13.356;2022-07-23T11:57:52;28.80;49.90
37052;DHT22;22964;52.272;13.356;2022-07-23T12:00:24;28.90;49.60
37052;DHT22;22964;52.272;13.356;2022-07-23T12:02:53;29.00;49.50
37052;DHT22;22964;52.272;13.356;2022-07-23T12:07:54;29.10;49.00
37052;DHT22;22964;52.272;13.356;2022-07-23T12:13:17;29.30;49.60
37052;DHT22;22964;52.272;13.356;2022-07-23T12:15:45;29.40;49.40
37052;DHT22;22964;52.272;13.356;2022-07-23T12:18:14;29.60;48.60
37052;DHT22;22964;52.272;13.356;2022-07-23T12:20:41;29.60;48.10
37052;DHT22;22964;52.272;13.356;2022-07-23T12:23:09;29.70;48.00
37052;DHT22;22964;52.272;13.356;2022-07-23T12:25:41;29.70;47.70
37052;DHT22;22964;52.272;13.356;2022-07-23T12:28:13;29.70;47.70
37052;DHT22;22964;52.272;13.356;2022-07-23T12:33:15;29.70;46.80
37052;DHT22;22964;52.272;13.356;2022-07-23T12:35:44;29.70;47.10
37052;DHT22;22964;52.272;13.356;2022-07-23T12:38:12;29.70;47.00
37052;DHT22;22964;52.272;13.356;2022-07-23T12:43:11;29.70;46.10
37052;DHT22;22964;52.272;13.356;2022-07-23T12:48:20;29.60;45.70
37052;DHT22;22964;52.272;13.356;2022-07-23T12:51:00;29.60;46.00
37052;DHT22;22964;52.272;13.356;2022-07-23T12:53:37;29.60;45.90
37052;DHT22;22964;52.272;13.356;2022-07-23T12:56:20;29.60;46.70
37052;DHT22;22964;52.272;13.356;2022-07-23T13:01:35;29.70;46.00
37052;DHT22;22964;52.272;13.356;2022-07-23T13:04:12;29.80;45.50
37052;DHT22;22964;52.272;13.356;2022-07-23T13:06:43;29.80;45.30
37052;DHT22;22964;52.272;13.356;2022-07-23T13:09:12;29.80;46.10
37052;DHT22;22964;52.272;13.356;2022-07-23T13:11:38;29.80;45.90
37052;DHT22;22964;52.272;13.356;2022-07-23T13:14:04;29.80;46.00
37052;DHT22;22964;52.272;13.356;2022-07-23T13:16:31;29.70;45.80
37052;DHT22;22964;52.272;13.356;2022-07-23T13:18:58;29.70;46.20
37052;DHT22;22964;52.272;13.356;2022-07-23T13:21:25;29.70;46.10
37052;DHT22;22964;52.272;13.356;2022-07-23T13:23:51;29.80;46.10
37052;DHT22;22964;52.272;13.356;2022-07-23T13:26:17;29.80;46.20
37052;DHT22;22964;52.272;13.356;2022-07-23T13:28:43;30.00;45.70
37052;DHT22;22964;52.272;13.356;2022-07-23T13:31:09;30.10;45.50
37052;DHT22;22964;52.272;13.356;2022-07-23T13:33:35;30.10;45.10
37052;DHT22;22964;52.272;13.356;2022-07-23T13:36:01;30.20;45.20
37052;DHT22;22964;52.272;13.356;2022-07-23T13:38:27;30.30;44.90
37052;DHT22;22964;52.272;13.356;2022-07-23T13:40:53;30.40;44.70
37052;DHT22;22964;52.272;13.356;2022-07-23T13:43:21;30.40;44.50
37052;DHT22;22964;52.272;13.356;2022-07-23T13:45:48;30.40;43.80
37052;DHT22;22964;52.272;13.356;2022-07-23T13:48:14;30.50;43.90
37052;DHT22;22964;52.272;13.356;2022-07-23T13:50:41;30.50;44.00
37052;DHT22;22964;52.272;13.356;2022-07-23T13:53:12;30.60;43.80
37052;DHT22;22964;52.272;13.356;2022-07-23T13:55:39;30.70;43.70
37052;DHT22;22964;52.272;13.356;2022-07-23T13:58:06;30.80;43.10
37052;DHT22;22964;52.272;13.356;2022-07-23T14:00:33;30.80;43.10
37052;DHT22;22964;52.272;13.356;2022-07-23T14:02:59;30.90;44.10
37052;DHT22;22964;52.272;13.356;2022-07-23T14:05:26;31.00;43.30
37052;DHT22;22964;52.272;13.356;2022-07-23T14:07:52;31.10;42.90
37052;DHT22;22964;52.272;13.356;2022-07-23T14:10:20;31.20;42.00
37052;DHT22;22964;52.272;13.356;2022-07-23T14:12:47;31.20;42.80
37052;DHT22;22964;52.272;13.356;2022-07-23T14:15:14;31.20;41.80
37052;DHT22;22964;52.272;13.356;2022-07-23T14:17:42;31.20;41.60
37052;DHT22;22964;52.272;13.356;2022-07-23T14:20:09;31.10;41.20
37052;DHT22;22964;52.272;13.356;2022-07-23T14:22:35;31.10;41.10
37052;DHT22;22964;52.272;13.356;2022-07-23T14:25:02;31.00;41.20
37052;DHT22;22964;52.272;13.356;2022-07-23T14:27:28;30.90;41.00
37052;DHT22;22964;52.272;13.356;2022-07-23T14:29:55;30.80;41.10
37052;DHT22;22964;52.272;13.356;2022-07-23T14:32:21;30.70;41.30
37052;DHT22;22964;52.272;13.356;2022-07-23T14:34:47;30.60;41.40
37052;DHT22;22964;52.272;13.356;2022-07-23T14:37:12;30.60;41.70
37052;DHT22;22964;52.272;13.356;2022-07-23T14:39:40;30.50;41.80
37052;DHT22;22964;52.272;13.356;2022-07-23T14:42:06;30.60;41.90
37052;DHT22;22964;52.272;13.356;2022-07-23T14:44:32;30.60;42.00
37052;DHT22;22964;52.272;13.356;2022-07-23T14:46:58;30.70;41.90
37052;DHT22;22964;52.272;13.356;2022-07-23T14:49:26;30.80;41.80
37052;DHT22;22964;52.272;13.356;2022-07-23T14:51:51;30.90;41.70
37052;DHT22;22964;52.272;13.356;2022-07-23T14:54:17;31.00;41.00
37052;DHT22;22964;52.272;13.356;2022-07-23T14:56:45;31.10;41.20
37052;DHT22;22964;52.272;13.356;2022-07-23T14:59:11;31.10;40.90
37052;DHT22;22964;52.272;13.356;2022-07-23T15:01:37;31.10;40.90
37052;DHT22;22964;52.272;13.356;2022-07-23T15:04:04;31.10;40.60
37052;DHT22;22964;52.272;13.356;2022-07-23T15:06:30;31.00;40.20
37052;DHT22;22964;52.272;13.356;2022-07-23T15:08:56;31.00;39.90
37052;DHT22;22964;52.272;13.356;2022-07-23T15:11:22;30.90;40.20
37052;DHT22;22964;52.272;13.356;2022-07-23T15:13:48;30.90;40.40
37052;DHT22;22964;52.272;13.356;2022-07-23T15:16:13;30.90;40.50
37052;DHT22;22964;52.272;13.356;2022-07-23T15:18:39;30.90;40.70
37052;DHT22;22964;52.272;13.356;2022-07-23T15:21:05;30.90;40.40
37052;DHT22;22964;52.272;13.356;2022-07-23T15:23:31;30.90;40.10
37052;DHT22;22964;52.272;13.356;2022-07-23T15:25:57;30.90;40.00
37052;DHT22;22964;52.272;13.356;2022-07-23T15:28:23;30.90;39.80
37052;DHT22;22964;52.272;13.356;2022-07-23T15:30:50;30.90;40.00
37052;DHT22;22964;52.272;13.356;2022-07-23T15:33:16;30.90;40.10
37052;DHT22;22964;52.272;13.356;2022-07-23T15:35:42;30.90;39.50
37052;DHT22;22964;52.272;13.356;2022-07-23T15:38:08;30.90;39.60
37052;DHT22;22964;52.272;13.356;2022-07-23T15:40:34;31.00;39.70
37052;DHT22;22964;52.272;13.356;2022-07-23T15:43:01;31.10;39.70
37052;DHT22;22964;52.272;13.356;2022-07-23T15:45:29;31.10;39.40
37052;DHT22;22964;52.272;13.356;2022-07-23T15:47:55;31.10;39.60
37052;DHT22;22964;52.272;13.356;2022-07-23T15:50:21;31.20;39.60
37052;DHT22;22964;52.272;13.356;2022-07-23T15:52:47;31.30;39.40
37052;DHT22;22964;52.272;13.356;2022-07-23T15:55:13;31.40;39.10
37052;DHT22;22964;52.272;13.356;2022-07-23T15:57:38;31.50;39.20
37052;DHT22;22964;52.272;13.356;2022-07-23T16:00:05;31.50;39.10
37052;DHT22;22964;52.272;13.356;2022-07-23T16:02:32;31.60;39.10
37052;DHT22;22964;52.272;13.356;2022-07-23T16:04:57;31.70;38.70
37052;DHT22;22964;52.272;13.356;2022-07-23T16:07:23;31.80;38.60
37052;DHT22;22964;52.272;13.356;2022-07-23T16:09:49;31.90;38.60
37052;DHT22;22964;52.272;13.356;2022-07-23T16:12:14;31.90;38.20